createdAt,value
2019-05-26T00:00:25.595Z,932.99
2019-05-26T00:01:25.559Z,933.00
2019-05-26T00:02:25.511Z,933.01
2019-05-26T00:03:25.459Z,933.02
2019-05-26T00:04:25.455Z,933.05
2019-05-26T00:05:25.376Z,933.00
2019-05-26T00:06:25.331Z,933.00
2019-05-26T00:07:30.760Z,933.01
2019-05-26T00:08:25.209Z,933.00
2019-05-26T00:09:25.173Z,933.02
2019-05-26T00:10:25.125Z,933.02
2019-05-26T00:11:25.096Z,933.04
2019-05-26T00:12:25.042Z,933.04
2019-05-26T00:13:24.979Z,933.06
2019-05-26T00:14:24.921Z,933.05
2019-05-26T00:15:24.890Z,933.00
2019-05-26T00:16:24.837Z,933.09
2019-05-26T00:17:24.789Z,933.08
2019-05-26T00:18:24.728Z,933.08
2019-05-26T00:19:24.704Z,933.03
2019-05-26T00:20:24.632Z,933.06
2019-05-26T00:21:24.598Z,932.98
2019-05-26T00:22:24.555Z,933.03
2019-05-26T00:23:24.487Z,932.94
2019-05-26T00:24:24.439Z,932.98
2019-05-26T00:25:24.390Z,932.94
2019-05-26T00:26:24.367Z,932.98
2019-05-26T00:27:24.305Z,932.96
2019-05-26T00:28:24.259Z,932.94
2019-05-26T00:29:24.211Z,933.01
2019-05-26T00:30:24.151Z,933.02
2019-05-26T00:31:24.114Z,933.04
2019-05-26T00:32:24.064Z,932.99
2019-05-26T00:33:24.004Z,933.03
2019-05-26T00:34:23.979Z,933.04
2019-05-26T00:35:23.919Z,933.07
2019-05-26T00:36:23.884Z,933.06
2019-05-26T00:37:23.812Z,933.05
2019-05-26T00:38:23.763Z,932.99
2019-05-26T00:39:23.727Z,933.01
2019-05-26T00:40:23.676Z,933.04
2019-05-26T00:41:23.630Z,933.03
2019-05-26T00:42:23.582Z,932.99
2019-05-26T00:43:23.521Z,932.98
2019-05-26T00:44:23.472Z,932.98
2019-05-26T00:45:23.425Z,932.98
2019-05-26T00:46:23.389Z,932.93
2019-05-26T00:47:23.340Z,932.94
2019-05-26T00:48:23.279Z,933.00
2019-05-26T00:49:23.239Z,933.00
2019-05-26T00:50:23.191Z,932.98
2019-05-26T00:51:23.150Z,933.00
2019-05-26T00:52:23.086Z,933.00
2019-05-26T00:53:23.050Z,932.97
2019-05-26T00:54:23.011Z,933.01
2019-05-26T00:55:22.949Z,933.03
2019-05-26T00:56:22.909Z,932.99
2019-05-26T00:57:22.857Z,933.01
2019-05-26T00:58:22.809Z,932.97
2019-05-26T00:59:22.748Z,932.93
2019-05-26T01:00:22.712Z,932.93
2019-05-26T01:01:22.665Z,932.94
2019-05-26T01:02:22.618Z,932.94
2019-05-26T01:03:22.563Z,932.95
2019-05-26T01:04:22.531Z,932.89
2019-05-26T01:05:22.472Z,932.86
2019-05-26T01:06:22.410Z,932.87
2019-05-26T01:07:22.370Z,932.84
2019-05-26T01:08:22.334Z,932.82
2019-05-26T01:09:22.285Z,932.88
2019-05-26T01:10:22.229Z,932.86
2019-05-26T01:11:22.184Z,932.83
2019-05-26T01:12:22.120Z,932.85
2019-05-26T01:13:22.080Z,932.86
2019-05-26T01:14:22.036Z,932.84
2019-05-26T01:15:21.975Z,932.81
2019-05-26T01:16:21.928Z,932.82
2019-05-26T01:17:21.879Z,932.83
2019-05-26T01:18:21.842Z,932.77
2019-05-26T01:19:21.795Z,932.82
2019-05-26T01:20:21.748Z,932.85
2019-05-26T01:21:21.700Z,932.87
2019-05-26T01:22:21.637Z,932.88
2019-05-26T01:23:21.610Z,932.90
2019-05-26T01:24:21.553Z,932.93
2019-05-26T01:25:21.526Z,932.95
2019-05-26T01:26:21.468Z,932.94
2019-05-26T01:27:21.421Z,932.91
2019-05-26T01:28:21.369Z,932.87
2019-05-26T01:29:21.299Z,932.90
2019-05-26T01:30:21.269Z,932.94
2019-05-26T01:31:21.215Z,932.93
2019-05-26T01:32:21.168Z,932.94
2019-05-26T01:33:21.106Z,932.93
2019-05-26T01:34:21.057Z,932.97
2019-05-26T01:35:21.009Z,932.96
2019-05-26T01:36:20.922Z,932.95
2019-05-26T01:37:20.921Z,932.95
2019-05-26T01:38:24.340Z,932.97
2019-05-26T01:39:20.816Z,933.04
2019-05-26T01:40:20.793Z,933.03
2019-05-26T01:41:20.732Z,933.07
2019-05-26T01:42:20.673Z,933.03
2019-05-26T01:43:20.634Z,933.09
2019-05-26T01:44:20.574Z,933.10
2019-05-26T01:45:20.535Z,933.12
2019-05-26T01:46:20.478Z,933.08
2019-05-26T01:47:20.443Z,933.09
2019-05-26T01:48:20.395Z,933.07
2019-05-26T01:49:20.345Z,933.04
2019-05-26T01:50:20.285Z,933.07
2019-05-26T01:51:20.250Z,933.05
2019-05-26T01:52:20.220Z,933.03
2019-05-26T01:53:20.155Z,933.01
2019-05-26T01:54:20.105Z,933.06
2019-05-26T01:55:20.045Z,933.02
2019-05-26T01:56:20.008Z,933.05
2019-05-26T01:57:19.961Z,933.06
2019-05-26T01:58:19.912Z,933.04
2019-05-26T01:59:19.863Z,932.98
2019-05-26T02:00:19.815Z,932.98
2019-05-26T02:01:19.762Z,932.98
2019-05-26T02:02:19.655Z,932.95
2019-05-26T02:03:19.669Z,932.99
2019-05-26T02:04:19.613Z,932.98
2019-05-26T02:05:19.563Z,933.03
2019-05-26T02:06:19.538Z,933.05
2019-05-26T02:07:19.477Z,933.02
2019-05-26T02:08:19.427Z,932.95
2019-05-26T02:09:19.380Z,933.04
2019-05-26T02:10:19.343Z,933.00
2019-05-26T02:11:19.273Z,932.98
2019-05-26T02:12:19.222Z,932.95
2019-05-26T02:13:19.173Z,932.96
2019-05-26T02:14:19.135Z,933.00
2019-05-26T02:15:19.077Z,932.98
2019-05-26T02:16:19.037Z,933.00
2019-05-26T02:17:18.988Z,933.02
2019-05-26T02:18:18.957Z,932.98
2019-05-26T02:19:18.904Z,932.98
2019-05-26T02:20:18.860Z,933.02
2019-05-26T02:21:18.786Z,932.98
2019-05-26T02:22:18.709Z,932.97
2019-05-26T02:23:18.698Z,933.04
2019-05-26T02:24:18.649Z,933.00
2019-05-26T02:25:18.607Z,933.03
2019-05-26T02:26:18.569Z,933.04
2019-05-26T02:27:18.508Z,933.04
2019-05-26T02:28:18.449Z,933.04
2019-05-26T02:29:18.414Z,933.02
2019-05-26T02:30:18.363Z,933.07
2019-05-26T02:31:18.304Z,933.07
2019-05-26T02:32:18.282Z,933.06
2019-05-26T02:33:18.214Z,933.04
2019-05-26T02:34:18.172Z,933.06
2019-05-26T02:35:18.156Z,933.07
2019-05-26T02:36:18.077Z,933.06
2019-05-26T02:37:18.023Z,933.04
2019-05-26T02:38:17.968Z,933.07
2019-05-26T02:39:17.925Z,933.11
2019-05-26T02:40:17.881Z,933.10
2019-05-26T02:41:17.828Z,933.06
2019-05-26T02:42:17.799Z,933.09
2019-05-26T02:43:17.754Z,933.08
2019-05-26T02:44:17.699Z,933.06
2019-05-26T02:45:17.662Z,933.03
2019-05-26T02:46:17.605Z,933.02
2019-05-26T02:47:17.543Z,933.02
2019-05-26T02:48:17.515Z,933.00
2019-05-26T02:49:17.445Z,932.97
2019-05-26T02:50:17.415Z,933.01
2019-05-26T02:51:17.359Z,932.99
2019-05-26T02:52:17.310Z,932.99
2019-05-26T02:53:17.197Z,933.02
2019-05-26T02:54:17.196Z,932.96
2019-05-26T02:55:17.176Z,932.94
2019-05-26T02:56:17.096Z,932.98
2019-05-26T02:57:17.052Z,932.90
2019-05-26T02:58:17.021Z,932.91
2019-05-26T02:59:16.973Z,932.91
2019-05-26T03:00:16.914Z,932.87
2019-05-26T03:01:16.877Z,932.88
2019-05-26T03:02:16.815Z,932.88
2019-05-26T03:03:16.787Z,932.91
2019-05-26T03:04:16.738Z,932.86
2019-05-26T03:05:16.682Z,932.83
2019-05-26T03:06:16.622Z,932.85
2019-05-26T03:07:16.600Z,932.84
2019-05-26T03:08:16.538Z,932.81
2019-05-26T03:09:22.748Z,932.81
2019-05-26T03:10:16.443Z,932.78
2019-05-26T03:11:16.379Z,932.76
2019-05-26T03:12:16.354Z,932.79
2019-05-26T03:13:16.289Z,932.78
2019-05-26T03:14:16.234Z,932.78
2019-05-26T03:15:16.209Z,932.80
2019-05-26T03:16:16.156Z,932.78
2019-05-26T03:17:16.085Z,932.77
2019-05-26T03:18:16.030Z,932.75
2019-05-26T03:19:15.993Z,932.76
2019-05-26T03:20:15.953Z,932.72
2019-05-26T03:21:15.908Z,932.75
2019-05-26T03:22:15.907Z,932.76
2019-05-26T03:23:15.811Z,932.74
2019-05-26T03:24:15.746Z,932.72
2019-05-26T03:25:15.714Z,932.71
2019-05-26T03:26:15.667Z,932.68
2019-05-26T03:27:15.614Z,932.69
2019-05-26T03:28:15.549Z,932.67
2019-05-26T03:29:15.510Z,932.70
2019-05-26T03:30:15.536Z,932.68
2019-05-26T03:31:15.428Z,932.64
2019-05-26T03:32:15.380Z,932.66
2019-05-26T03:33:15.310Z,932.68
2019-05-26T03:34:15.269Z,932.66
2019-05-26T03:35:15.215Z,932.66
2019-05-26T03:36:15.170Z,932.65
2019-05-26T03:37:15.109Z,932.66
2019-05-26T03:38:15.072Z,932.69
2019-05-26T03:39:15.027Z,932.62
2019-05-26T03:40:14.994Z,932.64
2019-05-26T03:41:14.915Z,932.64
2019-05-26T03:42:14.891Z,932.65
2019-05-26T03:43:14.860Z,932.67
2019-05-26T03:44:14.793Z,932.66
2019-05-26T03:45:14.745Z,932.63
2019-05-26T03:46:14.686Z,932.67
2019-05-26T03:47:16.894Z,932.65
2019-05-26T03:48:14.601Z,932.65
2019-05-26T03:49:14.535Z,932.66
2019-05-26T03:50:14.493Z,932.65
2019-05-26T03:51:14.457Z,932.66
2019-05-26T03:52:14.400Z,932.67
2019-05-26T03:53:14.355Z,932.70
2019-05-26T03:54:14.292Z,932.67
2019-05-26T03:55:14.260Z,932.68
2019-05-26T03:56:14.286Z,932.68
2019-05-26T03:57:14.169Z,932.68
2019-05-26T03:58:14.107Z,932.68
2019-05-26T03:59:14.051Z,932.67
2019-05-26T04:00:14.008Z,932.68
2019-05-26T04:01:13.957Z,932.66
2019-05-26T04:02:13.906Z,932.62
2019-05-26T04:03:13.875Z,932.58
2019-05-26T04:04:13.831Z,932.64
2019-05-26T04:05:13.770Z,932.62
2019-05-26T04:06:13.730Z,932.63
2019-05-26T04:07:13.668Z,932.64
2019-05-26T04:08:13.619Z,932.60
2019-05-26T04:09:13.584Z,932.62
2019-05-26T04:10:13.523Z,932.62
2019-05-26T04:11:13.613Z,932.63
2019-05-26T04:12:13.412Z,932.59
2019-05-26T04:13:13.377Z,932.62
2019-05-26T04:14:13.320Z,932.59
2019-05-26T04:15:13.266Z,932.60
2019-05-26T04:16:13.239Z,932.60
2019-05-26T04:17:13.171Z,932.56
2019-05-26T04:18:13.134Z,932.59
2019-05-26T04:19:13.095Z,932.57
2019-05-26T04:20:13.041Z,932.55
2019-05-26T04:21:12.987Z,932.56
2019-05-26T04:22:12.940Z,932.56
2019-05-26T04:23:12.878Z,932.54
2019-05-26T04:24:12.838Z,932.50
2019-05-26T04:25:12.792Z,932.50
2019-05-26T04:26:12.745Z,932.53
2019-05-26T04:27:12.691Z,932.53
2019-05-26T04:28:12.648Z,932.48
2019-05-26T04:29:12.611Z,932.51
2019-05-26T04:30:12.547Z,932.48
2019-05-26T04:31:12.503Z,932.46
2019-05-26T04:32:12.462Z,932.45
2019-05-26T04:33:12.412Z,932.41
2019-05-26T04:34:12.353Z,932.43
2019-05-26T04:35:12.300Z,932.45
2019-05-26T04:36:12.248Z,932.44
2019-05-26T04:37:12.209Z,932.46
2019-05-26T04:38:12.159Z,932.41
2019-05-26T04:39:12.114Z,932.46
2019-05-26T04:40:25.864Z,932.48
2019-05-26T04:41:12.027Z,932.42
2019-05-26T04:42:11.955Z,932.46
2019-05-26T04:43:14.839Z,932.48
2019-05-26T04:44:11.865Z,932.42
2019-05-26T04:45:11.819Z,932.41
2019-05-26T04:46:11.762Z,932.43
2019-05-26T04:47:11.736Z,932.37
2019-05-26T04:48:11.669Z,932.43
2019-05-26T04:49:11.633Z,932.41
2019-05-26T04:50:11.581Z,932.44
2019-05-26T04:51:11.541Z,932.38
2019-05-26T04:52:11.490Z,932.39
2019-05-26T04:53:11.444Z,932.37
2019-05-26T04:54:11.395Z,932.32
2019-05-26T04:55:11.334Z,932.33
2019-05-26T04:56:11.274Z,932.37
2019-05-26T04:57:11.240Z,932.32
2019-05-26T04:58:11.176Z,932.29
2019-05-26T04:59:11.129Z,932.28
2019-05-26T05:00:11.084Z,932.32
2019-05-26T05:01:11.056Z,932.29
2019-05-26T05:02:11.011Z,932.27
2019-05-26T05:03:10.934Z,932.31
2019-05-26T05:04:10.885Z,932.29
2019-05-26T05:05:10.850Z,932.27
2019-05-26T05:06:10.789Z,932.30
2019-05-26T05:07:10.743Z,932.27
2019-05-26T05:08:10.701Z,932.26
2019-05-26T05:09:10.662Z,932.25
2019-05-26T05:10:10.608Z,932.23
2019-05-26T05:11:10.544Z,932.24
2019-05-26T05:12:10.568Z,932.22
2019-05-26T05:13:10.465Z,932.20
2019-05-26T05:14:10.413Z,932.18
2019-05-26T05:15:10.361Z,932.19
2019-05-26T05:16:10.302Z,932.18
2019-05-26T05:17:10.268Z,932.17
2019-05-26T05:18:10.204Z,932.14
2019-05-26T05:19:10.168Z,932.13
2019-05-26T05:20:10.116Z,932.08
2019-05-26T05:21:10.083Z,932.05
2019-05-26T05:22:10.034Z,932.07
2019-05-26T05:23:09.973Z,932.06
2019-05-26T05:24:09.933Z,932.08
2019-05-26T05:25:14.596Z,932.03
2019-05-26T05:26:09.830Z,932.01
2019-05-26T05:27:09.779Z,931.98
2019-05-26T05:28:09.731Z,932.02
2019-05-26T05:29:09.677Z,932.01
2019-05-26T05:30:09.649Z,932.12
2019-05-26T05:31:09.593Z,932.00
2019-05-26T05:32:09.544Z,932.03
2019-05-26T05:33:09.489Z,932.07
2019-05-26T05:34:09.436Z,932.07
2019-05-26T05:35:09.378Z,932.07
2019-05-26T05:36:09.349Z,932.09
2019-05-26T05:37:09.280Z,932.11
2019-05-26T05:38:09.260Z,932.11
2019-05-26T05:39:09.182Z,932.09
2019-05-26T05:40:09.147Z,932.10
2019-05-26T05:41:09.097Z,932.12
2019-05-26T05:42:09.044Z,932.08
2019-05-26T05:43:09.000Z,932.11
2019-05-26T05:44:08.951Z,932.05
2019-05-26T05:45:08.905Z,932.04
2019-05-26T05:46:08.842Z,932.03
2019-05-26T05:47:08.795Z,931.95
2019-05-26T05:48:08.813Z,931.96
2019-05-26T05:49:08.719Z,931.97
2019-05-26T05:50:08.667Z,931.96
2019-05-26T05:51:08.609Z,932.00
2019-05-26T05:52:08.573Z,931.97
2019-05-26T05:53:08.503Z,931.98
2019-05-26T05:54:08.466Z,931.96
2019-05-26T05:55:08.433Z,931.96
2019-05-26T05:56:08.420Z,931.92
2019-05-26T05:57:08.318Z,931.90
2019-05-26T05:58:08.268Z,931.88
2019-05-26T05:59:08.209Z,931.86
2019-05-26T06:00:08.159Z,931.87
2019-05-26T06:01:08.125Z,931.86
2019-05-26T06:02:08.062Z,931.85
2019-05-26T06:03:08.013Z,931.85
2019-05-26T06:04:07.973Z,931.85
2019-05-26T06:05:07.942Z,931.85
2019-05-26T06:06:07.889Z,931.86
2019-05-26T06:07:07.818Z,931.84
2019-05-26T06:08:07.792Z,931.82
2019-05-26T06:09:07.749Z,931.86
2019-05-26T06:10:07.712Z,931.83
2019-05-26T06:11:16.343Z,931.82
2019-05-26T06:12:07.588Z,931.82
2019-05-26T06:13:07.569Z,931.84
2019-05-26T06:14:07.503Z,931.80
2019-05-26T06:15:07.641Z,931.83
2019-05-26T06:16:07.382Z,931.80
2019-05-26T06:17:10.428Z,931.80
2019-05-26T06:18:07.298Z,931.85
2019-05-26T06:19:07.252Z,931.86
2019-05-26T06:20:07.187Z,931.86
2019-05-26T06:21:07.151Z,931.83
2019-05-26T06:22:07.114Z,931.87
2019-05-26T06:23:07.042Z,931.84
2019-05-26T06:24:06.998Z,931.81
2019-05-26T06:25:06.946Z,931.83
2019-05-26T06:26:06.922Z,931.87
2019-05-26T06:27:06.856Z,931.83
2019-05-26T06:28:06.809Z,931.84
2019-05-26T06:29:06.751Z,931.85
2019-05-26T06:30:06.715Z,931.85
2019-05-26T06:31:06.665Z,931.88
2019-05-26T06:32:06.879Z,931.90
2019-05-26T06:33:06.565Z,931.90
2019-05-26T06:34:06.534Z,931.87
2019-05-26T06:35:06.482Z,931.86
2019-05-26T06:36:06.413Z,931.86
2019-05-26T06:37:06.365Z,931.86
2019-05-26T06:38:06.336Z,931.85
2019-05-26T06:39:06.266Z,931.89
2019-05-26T06:40:06.440Z,931.89
2019-05-26T06:41:06.180Z,931.85
2019-05-26T06:42:06.139Z,931.85
2019-05-26T06:43:06.073Z,931.83
2019-05-26T06:44:06.035Z,931.88
2019-05-26T06:45:05.979Z,931.84
2019-05-26T06:46:05.934Z,931.82
2019-05-26T06:47:05.879Z,931.85
2019-05-26T06:48:05.867Z,931.84
2019-05-26T06:49:05.796Z,931.86
2019-05-26T06:50:05.745Z,931.81
2019-05-26T06:51:05.686Z,931.81
2019-05-26T06:52:05.644Z,931.79
2019-05-26T06:53:05.611Z,931.81
2019-05-26T06:54:05.538Z,931.81
2019-05-26T06:55:05.497Z,931.77
2019-05-26T06:56:05.456Z,931.77
2019-05-26T06:57:05.392Z,931.78
2019-05-26T06:58:05.382Z,931.78
2019-05-26T06:59:05.317Z,931.76
2019-05-26T07:00:05.260Z,931.79
2019-05-26T07:01:05.198Z,931.79
2019-05-26T07:02:05.164Z,931.70
2019-05-26T07:03:05.101Z,931.76
2019-05-26T07:04:05.065Z,931.69
2019-05-26T07:05:05.034Z,931.67
2019-05-26T07:06:05.056Z,931.71
2019-05-26T07:07:04.915Z,931.69
2019-05-26T07:08:04.859Z,931.64
2019-05-26T07:09:04.811Z,931.69
2019-05-26T07:10:04.787Z,931.67
2019-05-26T07:11:04.712Z,931.69
2019-05-26T07:12:04.685Z,931.64
2019-05-26T07:13:04.639Z,931.64
2019-05-26T07:14:04.591Z,931.63
2019-05-26T07:15:04.530Z,931.59
2019-05-26T07:16:04.482Z,931.59
2019-05-26T07:17:04.431Z,931.62
2019-05-26T07:18:04.452Z,931.58
2019-05-26T07:19:04.352Z,931.57
2019-05-26T07:20:04.289Z,931.53
2019-05-26T07:21:04.255Z,931.54
2019-05-26T07:22:04.190Z,931.57
2019-05-26T07:23:06.161Z,931.56
2019-05-26T07:24:04.087Z,931.55
2019-05-26T07:25:04.043Z,931.58
2019-05-26T07:26:03.997Z,931.57
2019-05-26T07:27:03.957Z,931.53
2019-05-26T07:28:03.888Z,931.55
2019-05-26T07:29:03.847Z,931.56
2019-05-26T07:30:03.790Z,931.61
2019-05-26T07:31:03.748Z,931.57
2019-05-26T07:32:03.706Z,931.62
2019-05-26T07:33:03.724Z,931.65
2019-05-26T07:34:03.619Z,931.64
2019-05-26T07:35:03.548Z,931.60
2019-05-26T07:36:03.539Z,931.62
2019-05-26T07:37:03.464Z,931.67
2019-05-26T07:38:03.403Z,931.64
2019-05-26T07:39:03.377Z,931.70
2019-05-26T07:40:03.464Z,931.67
2019-05-26T07:41:03.267Z,931.67
2019-05-26T07:42:09.869Z,931.68
2019-05-26T07:43:03.179Z,931.70
2019-05-26T07:44:03.136Z,931.74
2019-05-26T07:45:03.077Z,931.72
2019-05-26T07:46:03.038Z,931.80
2019-05-26T07:47:02.977Z,931.81
2019-05-26T07:48:02.940Z,931.84
2019-05-26T07:49:02.891Z,931.86
2019-05-26T07:50:02.831Z,931.87
2019-05-26T07:51:02.770Z,931.87
2019-05-26T07:52:02.732Z,931.94
2019-05-26T07:53:02.672Z,931.97
2019-05-26T07:54:02.686Z,931.98
2019-05-26T07:55:02.584Z,932.06
2019-05-26T07:56:02.541Z,932.04
2019-05-26T07:57:02.500Z,932.05
2019-05-26T07:58:02.446Z,932.04
2019-05-26T07:59:02.381Z,932.02
2019-05-26T08:00:02.355Z,932.05
2019-05-26T08:01:02.284Z,932.07
2019-05-26T08:02:02.262Z,932.08
2019-05-26T08:03:02.197Z,932.07
2019-05-26T08:04:02.168Z,932.12
2019-05-26T08:05:02.103Z,932.09
2019-05-26T08:06:02.066Z,932.13
2019-05-26T08:07:02.037Z,932.12
2019-05-26T08:08:11.965Z,932.10
2019-05-26T08:09:01.909Z,932.13
2019-05-26T08:10:01.973Z,932.12
2019-05-26T08:11:01.823Z,932.07
2019-05-26T08:12:01.750Z,932.10
2019-05-26T08:13:01.713Z,932.14
2019-05-26T08:14:01.666Z,932.15
2019-05-26T08:15:01.620Z,932.13
2019-05-26T08:16:01.581Z,932.17
2019-05-26T08:17:01.510Z,932.15
2019-05-26T08:18:01.461Z,932.19
2019-05-26T08:19:01.424Z,932.16
2019-05-26T08:20:01.362Z,932.19
2019-05-26T08:21:01.314Z,932.21
2019-05-26T08:22:01.273Z,932.19
2019-05-26T08:23:01.217Z,932.17
2019-05-26T08:24:01.184Z,932.23
2019-05-26T08:25:01.128Z,932.23
2019-05-26T08:26:01.071Z,932.23
2019-05-26T08:27:01.035Z,932.28
2019-05-26T08:28:00.999Z,932.22
2019-05-26T08:29:00.946Z,932.25
2019-05-26T08:30:00.898Z,932.18
2019-05-26T08:31:00.841Z,932.21
2019-05-26T08:32:00.792Z,932.22
2019-05-26T08:33:00.742Z,932.22
2019-05-26T08:34:00.695Z,932.28
2019-05-26T08:35:00.644Z,932.27
2019-05-26T08:36:00.597Z,932.23
2019-05-26T08:37:00.554Z,932.23
2019-05-26T08:38:00.503Z,932.21
2019-05-26T08:39:00.454Z,932.24
2019-05-26T08:40:00.405Z,932.26
2019-05-26T08:41:00.357Z,932.27
2019-05-26T08:42:00.295Z,932.30
2019-05-26T08:43:00.270Z,932.33
2019-05-26T08:44:00.211Z,932.30
2019-05-26T08:45:00.150Z,932.30
2019-05-26T08:46:00.116Z,932.29
2019-05-26T08:47:00.052Z,932.27
2019-05-26T08:48:00.004Z,932.33
2019-05-26T08:48:59.969Z,932.34
2019-05-26T08:49:59.928Z,932.35
2019-05-26T08:50:59.859Z,932.35
2019-05-26T08:51:59.823Z,932.35
2019-05-26T08:52:59.774Z,932.41
2019-05-26T08:53:59.724Z,932.41
2019-05-26T08:54:59.664Z,932.41
2019-05-26T08:55:59.637Z,932.45
2019-05-26T08:56:59.579Z,932.47
2019-05-26T08:57:59.551Z,932.48
2019-05-26T08:58:59.483Z,932.47
2019-05-26T08:59:59.427Z,932.45
2019-05-26T09:00:59.387Z,932.47
2019-05-26T09:01:59.342Z,932.44
2019-05-26T09:02:59.293Z,932.45
2019-05-26T09:03:59.241Z,932.45
2019-05-26T09:04:59.205Z,932.49
2019-05-26T09:05:59.160Z,932.47
2019-05-26T09:06:59.091Z,932.47
2019-05-26T09:07:59.047Z,932.50
2019-05-26T09:08:59.014Z,932.47
2019-05-26T09:09:59.029Z,932.48
2019-05-26T09:10:58.901Z,932.50
2019-05-26T09:11:58.854Z,932.49
2019-05-26T09:13:01.246Z,932.53
2019-05-26T09:13:58.746Z,932.52
2019-05-26T09:14:58.710Z,932.53
2019-05-26T09:15:58.650Z,932.54
2019-05-26T09:16:58.602Z,932.55
2019-05-26T09:17:58.575Z,932.60
2019-05-26T09:18:58.511Z,932.54
2019-05-26T09:19:58.479Z,932.62
2019-05-26T09:20:58.427Z,932.59
2019-05-26T09:21:58.381Z,932.62
2019-05-26T09:22:58.317Z,932.65
2019-05-26T09:23:58.319Z,932.62
2019-05-26T09:24:58.227Z,932.61
2019-05-26T09:25:58.165Z,932.64
2019-05-26T09:26:58.116Z,932.65
2019-05-26T09:27:58.070Z,932.63
2019-05-26T09:28:58.031Z,932.66
2019-05-26T09:29:57.983Z,932.63
2019-05-26T09:30:57.922Z,932.62
2019-05-26T09:31:57.895Z,932.63
2019-05-26T09:32:57.851Z,932.67
2019-05-26T09:33:57.801Z,932.67
2019-05-26T09:34:57.729Z,932.67
2019-05-26T09:35:57.680Z,932.68
2019-05-26T09:36:57.640Z,932.69
2019-05-26T09:37:57.595Z,932.67
2019-05-26T09:38:57.550Z,932.67
2019-05-26T09:39:57.487Z,932.72
2019-05-26T09:40:57.447Z,932.73
2019-05-26T09:41:57.418Z,932.71
2019-05-26T09:42:57.366Z,932.74
2019-05-26T09:43:57.314Z,932.70
2019-05-26T09:44:57.258Z,932.71
2019-05-26T09:45:57.210Z,932.67
2019-05-26T09:46:57.156Z,932.69
2019-05-26T09:47:57.127Z,932.73
2019-05-26T09:49:00.643Z,932.72
2019-05-26T09:49:57.023Z,932.67
2019-05-26T09:50:56.965Z,932.70
2019-05-26T09:51:56.918Z,932.73
2019-05-26T09:52:56.870Z,932.70
2019-05-26T09:54:01.681Z,932.71
2019-05-26T09:54:56.773Z,932.72
2019-05-26T09:55:56.725Z,932.70
2019-05-26T09:56:56.671Z,932.70
2019-05-26T09:57:56.615Z,932.72
2019-05-26T09:58:56.716Z,932.73
2019-05-26T09:59:56.530Z,932.75
2019-05-26T10:00:56.483Z,932.73
2019-05-26T10:01:56.434Z,932.79
2019-05-26T10:02:56.378Z,932.77
2019-05-26T10:03:56.337Z,932.79
2019-05-26T10:04:56.298Z,932.74
2019-05-26T10:05:56.228Z,932.76
2019-05-26T10:06:56.200Z,932.81
2019-05-26T10:07:56.151Z,932.84
2019-05-26T10:08:56.102Z,932.85
2019-05-26T10:09:56.033Z,932.88
2019-05-26T10:10:55.984Z,932.88
2019-05-26T10:11:55.957Z,932.87
2019-05-26T10:12:55.897Z,932.94
2019-05-26T10:13:55.863Z,932.93
2019-05-26T10:14:55.799Z,932.88
2019-05-26T10:15:55.763Z,932.90
2019-05-26T10:16:55.714Z,932.87
2019-05-26T10:17:55.654Z,932.87
2019-05-26T10:18:55.596Z,932.83
2019-05-26T10:19:55.576Z,932.87
2019-05-26T10:20:55.535Z,932.92
2019-05-26T10:21:55.464Z,932.93
2019-05-26T10:22:55.482Z,932.96
2019-05-26T10:23:55.367Z,932.92
2019-05-26T10:24:55.330Z,932.95
2019-05-26T10:25:55.269Z,933.00
2019-05-26T10:26:55.233Z,933.01
2019-05-26T10:27:55.172Z,932.94
2019-05-26T10:28:55.110Z,932.97
2019-05-26T10:29:55.073Z,932.99
2019-05-26T10:30:55.014Z,933.02
2019-05-26T10:31:54.987Z,932.98
2019-05-26T10:32:54.929Z,933.03
2019-05-26T10:33:54.895Z,933.04
2019-05-26T10:34:54.820Z,933.05
2019-05-26T10:35:54.798Z,933.03
2019-05-26T10:36:54.726Z,933.05
2019-05-26T10:37:54.700Z,933.06
2019-05-26T10:38:54.626Z,933.04
2019-05-26T10:39:54.577Z,933.04
2019-05-26T10:40:54.571Z,933.06
2019-05-26T10:41:54.494Z,933.03
2019-05-26T10:42:54.431Z,933.05
2019-05-26T10:43:54.405Z,933.06
2019-05-26T10:44:54.348Z,933.08
2019-05-26T10:45:54.300Z,933.08
2019-05-26T10:46:54.238Z,933.08
2019-05-26T10:47:54.189Z,933.09
2019-05-26T10:48:54.157Z,933.10
2019-05-26T10:49:54.123Z,933.11
2019-05-26T10:50:54.056Z,933.11
2019-05-26T10:51:54.004Z,933.12
2019-05-26T10:52:53.948Z,933.16
2019-05-26T10:53:53.912Z,933.16
2019-05-26T10:54:53.875Z,933.21
2019-05-26T10:55:53.816Z,933.19
2019-05-26T10:56:53.754Z,933.24
2019-05-26T10:57:53.706Z,933.20
2019-05-26T10:58:53.669Z,933.24
2019-05-26T10:59:53.622Z,933.24
2019-05-26T11:00:53.583Z,933.23
2019-05-26T11:01:53.526Z,933.24
2019-05-26T11:02:53.490Z,933.24
2019-05-26T11:03:53.420Z,933.20
2019-05-26T11:04:53.383Z,933.13
2019-05-26T11:05:53.335Z,933.16
2019-05-26T11:06:53.297Z,933.17
2019-05-26T11:07:53.235Z,933.15
2019-05-26T11:08:53.198Z,933.16
2019-05-26T11:09:53.129Z,933.16
2019-05-26T11:10:53.102Z,933.22
2019-05-26T11:11:53.045Z,933.17
2019-05-26T11:12:53.007Z,933.20
2019-05-26T11:14:02.225Z,933.25
2019-05-26T11:14:52.898Z,933.25
2019-05-26T11:15:52.859Z,933.25
2019-05-26T11:16:52.810Z,933.29
2019-05-26T11:17:52.773Z,933.27
2019-05-26T11:18:52.699Z,933.34
2019-05-26T11:19:52.659Z,933.36
2019-05-26T11:20:52.604Z,933.36
2019-05-26T11:21:52.558Z,933.40
2019-05-26T11:22:52.517Z,933.45
2019-05-26T11:23:52.479Z,933.48
2019-05-26T11:24:52.437Z,933.46
2019-05-26T11:25:52.365Z,933.48
2019-05-26T11:26:52.320Z,933.44
2019-05-26T11:27:52.283Z,933.53
2019-05-26T11:28:52.234Z,933.51
2019-05-26T11:29:52.175Z,933.54
2019-05-26T11:30:52.145Z,933.59
2019-05-26T11:31:52.093Z,933.57
2019-05-26T11:32:52.053Z,933.60
2019-05-26T11:33:52.006Z,933.70
2019-05-26T11:35:01.270Z,933.73
2019-05-26T11:35:51.915Z,933.70
2019-05-26T11:36:51.854Z,933.73
2019-05-26T11:37:51.818Z,933.80
2019-05-26T11:38:51.770Z,933.78
2019-05-26T11:39:51.720Z,933.79
2019-05-26T11:40:51.662Z,933.79
2019-05-26T11:41:54.895Z,933.81
2019-05-26T11:42:51.567Z,933.79
2019-05-26T11:43:51.528Z,933.77
2019-05-26T11:44:51.471Z,933.81
2019-05-26T11:45:51.441Z,933.76
2019-05-26T11:46:51.388Z,933.78
2019-05-26T11:47:51.316Z,933.75
2019-05-26T11:48:51.279Z,933.76
2019-05-26T11:49:51.274Z,933.73
2019-05-26T11:50:51.172Z,933.74
2019-05-26T11:51:51.162Z,933.74
2019-05-26T11:52:51.098Z,933.68
2019-05-26T11:53:51.038Z,933.69
2019-05-26T11:54:51.005Z,933.72
2019-05-26T11:55:50.933Z,933.73
2019-05-26T11:56:50.907Z,933.69
2019-05-26T11:57:50.837Z,933.75
2019-05-26T11:58:50.802Z,933.78
2019-05-26T11:59:50.762Z,933.77
2019-05-26T12:00:50.698Z,933.79
2019-05-26T12:01:50.672Z,933.78
2019-05-26T12:02:50.613Z,933.84
2019-05-26T12:03:50.623Z,933.86
2019-05-26T12:04:50.516Z,933.81
2019-05-26T12:05:50.468Z,933.86
2019-05-26T12:06:50.420Z,933.85
2019-05-26T12:07:50.384Z,933.92
2019-05-26T12:08:50.337Z,933.91
2019-05-26T12:09:50.278Z,933.86
2019-05-26T12:10:50.224Z,933.84
2019-05-26T12:11:50.172Z,933.89
2019-05-26T12:12:50.142Z,933.85
2019-05-26T12:13:50.088Z,933.84
2019-05-26T12:14:50.059Z,933.86
2019-05-26T12:15:50.002Z,933.88
2019-05-26T12:16:49.939Z,933.88
2019-05-26T12:17:49.894Z,933.84
2019-05-26T12:18:49.861Z,933.89
2019-05-26T12:19:49.818Z,933.91
2019-05-26T12:20:49.743Z,933.88
2019-05-26T12:21:49.717Z,933.88
2019-05-26T12:22:49.648Z,933.93
2019-05-26T12:23:49.598Z,933.95
2019-05-26T12:24:49.572Z,933.95
2019-05-26T12:25:49.511Z,933.90
2019-05-26T12:26:49.455Z,933.88
2019-05-26T12:27:49.435Z,933.91